Joussard, Canada
Current Conditions -  °F | °C
As of 4:32 AM on Saturday 22 Nov 2014 (Local Time) from CYZH Reporting Station
Light Snow Light Snow  
Wind Chill: 12°   Ceiling: 900
Heat Index: 23°   Visibility: 9mi
Dew Point: 21°   Wind: 12mph
Humidity: 93%   Direction: 100°E
Pressure: 29.25"   Gusts: 17mph
Location:  55.37°N, 115.93°W
Report Text: CYZH 221132Z AUTO 10010G15KT 9SM -SN OVC009 M05/M06 A2925 RMK SLP931
Loading
Personal Weather Stations






























Interactive Weather Map New forecast layout! Learn more

10-Day Weather Forecast

Advertisements
Track Severe Weather on mobile